<?xml version="1.0" encoding="UTF-8" standalone="no" ?>
<gpx xmlns="http://www.topografix.com/GPX/1/1" xmlns:xsi="http://www.w3.org/2001/XMLSchema-instance" xsi:schemaLocation="http://www.topografix.com/GPX/1/1 http://www.topografix.com/GPX/1/1/gpx.xsd" version="1.1" creator="VisuGPX - https://www.visugpx.com">
  <metadata>
    <name>Jour 4</name>
  </metadata>
  <trk>
    <name><![CDATA[J4]]></name>
    <extensions>
      <line xmlns="http://www.topografix.com/GPX/gpx_style/0/2">
        <color>0000FF</color>
        <width>4</width>
      </line>
    </extensions>
    <trkseg>
      <trkpt lat="42.28826" lon="0.5343">
        <ele>750.13</ele>
        <time>2021-08-02T08:42:58Z</time>
      </trkpt>
      <trkpt lat="42.28826" lon="0.5343">
        <ele>750.13</ele>
        <time>2021-08-02T08:42:58Z</time>
      </trkpt>
      <trkpt lat="42.28819" lon="0.53433">
        <ele>749.77</ele>
        <time>2021-08-02T08:42:59Z</time>
      </trkpt>
      <trkpt lat="42.2875" lon="0.53442">
        <ele>748.95</ele>
        <time>2021-08-02T08:43:05Z</time>
      </trkpt>
      <trkpt lat="42.28596" lon="0.53457">
        <ele>749</ele>
        <time>2021-08-02T08:43:13Z</time>
      </trkpt>
      <trkpt lat="42.28555" lon="0.53463">
        <ele>748.12</ele>
        <time>2021-08-02T08:43:15Z</time>
      </trkpt>
      <trkpt lat="42.28484" lon="0.53514">
        <ele>744.16</ele>
        <time>2021-08-02T08:43:19Z</time>
      </trkpt>
      <trkpt lat="42.28453" lon="0.53547">
        <ele>741.51</ele>
        <time>2021-08-02T08:43:21Z</time>
      </trkpt>
      <trkpt lat="42.28402" lon="0.53572">
        <ele>736.49</ele>
        <time>2021-08-02T08:43:24Z</time>
      </trkpt>
      <trkpt lat="42.28366" lon="0.53569">
        <ele>732.41</ele>
        <time>2021-08-02T08:43:26Z</time>
      </trkpt>
      <trkpt lat="42.28336" lon="0.53552">
        <ele>728.32</ele>
        <time>2021-08-02T08:43:28Z</time>
      </trkpt>
      <trkpt lat="42.28313" lon="0.53524">
        <ele>724.24</ele>
        <time>2021-08-02T08:43:30Z</time>
      </trkpt>
      <trkpt lat="42.28294" lon="0.5349">
        <ele>720.32</ele>
        <time>2021-08-02T08:43:32Z</time>
      </trkpt>
      <trkpt lat="42.28286" lon="0.5347">
        <ele>718.47</ele>
        <time>2021-08-02T08:43:33Z</time>
      </trkpt>
      <trkpt lat="42.28263" lon="0.53405">
        <ele>713.35</ele>
        <time>2021-08-02T08:43:36Z</time>
      </trkpt>
      <trkpt lat="42.28237" lon="0.53342">
        <ele>709.08</ele>
        <time>2021-08-02T08:43:39Z</time>
      </trkpt>
      <trkpt lat="42.28211" lon="0.53278">
        <ele>705.18</ele>
        <time>2021-08-02T08:43:42Z</time>
      </trkpt>
      <trkpt lat="42.28186" lon="0.53218">
        <ele>700.95</ele>
        <time>2021-08-02T08:43:45Z</time>
      </trkpt>
      <trkpt lat="42.28163" lon="0.5316">
        <ele>696.73</ele>
        <time>2021-08-02T08:43:48Z</time>
      </trkpt>
      <trkpt lat="42.28138" lon="0.53101">
        <ele>692.76</ele>
        <time>2021-08-02T08:43:51Z</time>
      </trkpt>
      <trkpt lat="42.28114" lon="0.53042">
        <ele>689.43</ele>
        <time>2021-08-02T08:43:54Z</time>
      </trkpt>
      <trkpt lat="42.28098" lon="0.53005">
        <ele>687.32</ele>
        <time>2021-08-02T08:43:56Z</time>
      </trkpt>
      <trkpt lat="42.28056" lon="0.52947">
        <ele>683.2</ele>
        <time>2021-08-02T08:44:00Z</time>
      </trkpt>
      <trkpt lat="42.27976" lon="0.52922">
        <ele>680.54</ele>
        <time>2021-08-02T08:44:05Z</time>
      </trkpt>
      <trkpt lat="42.27929" lon="0.5294">
        <ele>680.01</ele>
        <time>2021-08-02T08:44:08Z</time>
      </trkpt>
      <trkpt lat="42.2787" lon="0.52979">
        <ele>679.11</ele>
        <time>2021-08-02T08:44:12Z</time>
      </trkpt>
      <trkpt lat="42.27807" lon="0.5306">
        <ele>678.73</ele>
        <time>2021-08-02T08:44:17Z</time>
      </trkpt>
      <trkpt lat="42.27741" lon="0.53191">
        <ele>678.77</ele>
        <time>2021-08-02T08:44:24Z</time>
      </trkpt>
      <trkpt lat="42.27657" lon="0.5323">
        <ele>678.7</ele>
        <time>2021-08-02T08:44:30Z</time>
      </trkpt>
      <trkpt lat="42.27625" lon="0.5322">
        <ele>678.66</ele>
        <time>2021-08-02T08:44:32Z</time>
      </trkpt>
      <trkpt lat="42.27474" lon="0.5316">
        <ele>678.84</ele>
        <time>2021-08-02T08:44:41Z</time>
      </trkpt>
      <trkpt lat="42.27418" lon="0.53106">
        <ele>677.78</ele>
        <time>2021-08-02T08:44:45Z</time>
      </trkpt>
      <trkpt lat="42.27269" lon="0.5287">
        <ele>674.31</ele>
        <time>2021-08-02T08:44:57Z</time>
      </trkpt>
      <trkpt lat="42.27142" lon="0.52675">
        <ele>672.03</ele>
        <time>2021-08-02T08:45:07Z</time>
      </trkpt>
      <trkpt lat="42.2702" lon="0.52552">
        <ele>669.85</ele>
        <time>2021-08-02T08:45:15Z</time>
      </trkpt>
      <trkpt lat="42.26912" lon="0.52405">
        <ele>671.43</ele>
        <time>2021-08-02T08:45:23Z</time>
      </trkpt>
      <trkpt lat="42.26833" lon="0.52346">
        <ele>672.17</ele>
        <time>2021-08-02T08:45:28Z</time>
      </trkpt>
      <trkpt lat="42.26747" lon="0.52327">
        <ele>672.36</ele>
        <time>2021-08-02T08:45:33Z</time>
      </trkpt>
      <trkpt lat="42.2663" lon="0.52238">
        <ele>673.42</ele>
        <time>2021-08-02T08:45:41Z</time>
      </trkpt>
      <trkpt lat="42.26604" lon="0.5221">
        <ele>673.54</ele>
        <time>2021-08-02T08:45:43Z</time>
      </trkpt>
      <trkpt lat="42.26536" lon="0.52066">
        <ele>673.39</ele>
        <time>2021-08-02T08:45:50Z</time>
      </trkpt>
      <trkpt lat="42.26496" lon="0.51984">
        <ele>673.05</ele>
        <time>2021-08-02T08:45:54Z</time>
      </trkpt>
      <trkpt lat="42.26324" lon="0.51791">
        <ele>669.87</ele>
        <time>2021-08-02T08:46:06Z</time>
      </trkpt>
      <trkpt lat="42.26263" lon="0.51726">
        <ele>667.48</ele>
        <time>2021-08-02T08:46:10Z</time>
      </trkpt>
      <trkpt lat="42.2619" lon="0.51695">
        <ele>665.18</ele>
        <time>2021-08-02T08:46:14Z</time>
      </trkpt>
      <trkpt lat="42.26071" lon="0.51708">
        <ele>662.25</ele>
        <time>2021-08-02T08:46:20Z</time>
      </trkpt>
      <trkpt lat="42.25955" lon="0.51775">
        <ele>658.37</ele>
        <time>2021-08-02T08:46:27Z</time>
      </trkpt>
      <trkpt lat="42.2594" lon="0.51784">
        <ele>657.78</ele>
        <time>2021-08-02T08:46:28Z</time>
      </trkpt>
      <trkpt lat="42.25869" lon="0.51785">
        <ele>656.15</ele>
        <time>2021-08-02T08:46:32Z</time>
      </trkpt>
      <trkpt lat="42.25781" lon="0.51748">
        <ele>655.3</ele>
        <time>2021-08-02T08:46:37Z</time>
      </trkpt>
      <trkpt lat="42.2567" lon="0.51659">
        <ele>652.63</ele>
        <time>2021-08-02T08:46:45Z</time>
      </trkpt>
      <trkpt lat="42.25657" lon="0.51628">
        <ele>648.14</ele>
        <time>2021-08-02T08:46:49Z</time>
      </trkpt>
      <trkpt lat="42.25655" lon="0.5158">
        <ele>642.58</ele>
        <time>2021-08-02T08:46:55Z</time>
      </trkpt>
      <trkpt lat="42.25654" lon="0.51564">
        <ele>641.55</ele>
        <time>2021-08-02T08:46:57Z</time>
      </trkpt>
      <trkpt lat="42.25663" lon="0.51513">
        <ele>640.38</ele>
        <time>2021-08-02T08:47:02Z</time>
      </trkpt>
      <trkpt lat="42.25697" lon="0.51388">
        <ele>640.25</ele>
        <time>2021-08-02T08:47:13Z</time>
      </trkpt>
      <trkpt lat="42.25714" lon="0.51352">
        <ele>640.28</ele>
        <time>2021-08-02T08:47:18Z</time>
      </trkpt>
      <trkpt lat="42.25701" lon="0.51331">
        <ele>640.28</ele>
        <time>2021-08-02T08:47:24Z</time>
      </trkpt>
      <trkpt lat="42.25689" lon="0.5134">
        <ele>640.3</ele>
        <time>2021-08-02T08:47:26Z</time>
      </trkpt>
      <trkpt lat="42.25638" lon="0.51403">
        <ele>643.5</ele>
        <time>2021-08-02T08:47:35Z</time>
      </trkpt>
      <trkpt lat="42.25622" lon="0.51428">
        <ele>645.69</ele>
        <time>2021-08-02T08:47:38Z</time>
      </trkpt>
      <trkpt lat="42.25585" lon="0.51441">
        <ele>650.18</ele>
        <time>2021-08-02T08:47:43Z</time>
      </trkpt>
      <trkpt lat="42.25557" lon="0.51439">
        <ele>652.95</ele>
        <time>2021-08-02T08:47:46Z</time>
      </trkpt>
      <trkpt lat="42.25513" lon="0.51425">
        <ele>657.76</ele>
        <time>2021-08-02T08:47:51Z</time>
      </trkpt>
      <trkpt lat="42.2549" lon="0.51385">
        <ele>661.92</ele>
        <time>2021-08-02T08:47:56Z</time>
      </trkpt>
      <trkpt lat="42.25474" lon="0.51368">
        <ele>665.01</ele>
        <time>2021-08-02T08:48:00Z</time>
      </trkpt>
      <trkpt lat="42.2545" lon="0.51395">
        <ele>668.39</ele>
        <time>2021-08-02T08:48:05Z</time>
      </trkpt>
      <trkpt lat="42.25446" lon="0.51403">
        <ele>669.09</ele>
        <time>2021-08-02T08:48:06Z</time>
      </trkpt>
      <trkpt lat="42.25419" lon="0.51445">
        <ele>672.84</ele>
        <time>2021-08-02T08:48:11Z</time>
      </trkpt>
      <trkpt lat="42.25412" lon="0.5145">
        <ele>673.34</ele>
        <time>2021-08-02T08:48:12Z</time>
      </trkpt>
      <trkpt lat="42.25405" lon="0.51453">
        <ele>673.75</ele>
        <time>2021-08-02T08:48:13Z</time>
      </trkpt>
      <trkpt lat="42.25398" lon="0.51454">
        <ele>674.04</ele>
        <time>2021-08-02T08:48:14Z</time>
      </trkpt>
      <trkpt lat="42.25391" lon="0.51454">
        <ele>674.35</ele>
        <time>2021-08-02T08:48:15Z</time>
      </trkpt>
      <trkpt lat="42.25384" lon="0.51454">
        <ele>674.76</ele>
        <time>2021-08-02T08:48:16Z</time>
      </trkpt>
      <trkpt lat="42.25377" lon="0.51451">
        <ele>675.21</ele>
        <time>2021-08-02T08:48:17Z</time>
      </trkpt>
      <trkpt lat="42.25359" lon="0.51432">
        <ele>676.59</ele>
        <time>2021-08-02T08:48:20Z</time>
      </trkpt>
      <trkpt lat="42.25322" lon="0.51376">
        <ele>680.25</ele>
        <time>2021-08-02T08:48:26Z</time>
      </trkpt>
      <trkpt lat="42.25303" lon="0.51351">
        <ele>681.65</ele>
        <time>2021-08-02T08:48:29Z</time>
      </trkpt>
      <trkpt lat="42.25288" lon="0.51309">
        <ele>682.97</ele>
        <time>2021-08-02T08:48:33Z</time>
      </trkpt>
      <trkpt lat="42.25258" lon="0.51277">
        <ele>684.28</ele>
        <time>2021-08-02T08:48:39Z</time>
      </trkpt>
      <trkpt lat="42.2525" lon="0.51281">
        <ele>684.34</ele>
        <time>2021-08-02T08:48:40Z</time>
      </trkpt>
      <trkpt lat="42.25205" lon="0.51286">
        <ele>685.4</ele>
        <time>2021-08-02T08:48:45Z</time>
      </trkpt>
      <trkpt lat="42.25165" lon="0.51233">
        <ele>688.89</ele>
        <time>2021-08-02T08:48:52Z</time>
      </trkpt>
      <trkpt lat="42.25162" lon="0.51218">
        <ele>690.17</ele>
        <time>2021-08-02T08:48:54Z</time>
      </trkpt>
      <trkpt lat="42.25161" lon="0.51214">
        <ele>690.95</ele>
        <time>2021-08-02T08:48:56Z</time>
      </trkpt>
      <trkpt lat="42.25163" lon="0.51189">
        <ele>691.18</ele>
        <time>2021-08-02T08:49:01Z</time>
      </trkpt>
      <trkpt lat="42.25141" lon="0.51135">
        <ele>690.5</ele>
        <time>2021-08-02T08:49:08Z</time>
      </trkpt>
      <trkpt lat="42.25142" lon="0.51126">
        <ele>690.33</ele>
        <time>2021-08-02T08:49:09Z</time>
      </trkpt>
      <trkpt lat="42.25118" lon="0.51057">
        <ele>688.9</ele>
        <time>2021-08-02T08:49:16Z</time>
      </trkpt>
      <trkpt lat="42.25094" lon="0.51032">
        <ele>688.64</ele>
        <time>2021-08-02T08:49:19Z</time>
      </trkpt>
      <trkpt lat="42.25052" lon="0.50984">
        <ele>688.58</ele>
        <time>2021-08-02T08:49:25Z</time>
      </trkpt>
      <trkpt lat="42.25042" lon="0.50924">
        <ele>687.19</ele>
        <time>2021-08-02T08:49:31Z</time>
      </trkpt>
      <trkpt lat="42.25049" lon="0.50863">
        <ele>685.44</ele>
        <time>2021-08-02T08:49:36Z</time>
      </trkpt>
      <trkpt lat="42.25048" lon="0.50797">
        <ele>683.22</ele>
        <time>2021-08-02T08:49:41Z</time>
      </trkpt>
      <trkpt lat="42.25045" lon="0.50783">
        <ele>683.02</ele>
        <time>2021-08-02T08:49:42Z</time>
      </trkpt>
      <trkpt lat="42.25039" lon="0.50755">
        <ele>682.56</ele>
        <time>2021-08-02T08:49:44Z</time>
      </trkpt>
      <trkpt lat="42.25014" lon="0.50714">
        <ele>680.72</ele>
        <time>2021-08-02T08:49:48Z</time>
      </trkpt>
      <trkpt lat="42.24975" lon="0.50668">
        <ele>679.01</ele>
        <time>2021-08-02T08:49:53Z</time>
      </trkpt>
      <trkpt lat="42.24944" lon="0.50598">
        <ele>676.46</ele>
        <time>2021-08-02T08:49:58Z</time>
      </trkpt>
      <trkpt lat="42.24929" lon="0.50573">
        <ele>674.91</ele>
        <time>2021-08-02T08:50:00Z</time>
      </trkpt>
      <trkpt lat="42.24916" lon="0.5052">
        <ele>670.92</ele>
        <time>2021-08-02T08:50:04Z</time>
      </trkpt>
      <trkpt lat="42.24927" lon="0.50453">
        <ele>664.84</ele>
        <time>2021-08-02T08:50:09Z</time>
      </trkpt>
      <trkpt lat="42.24943" lon="0.50377">
        <ele>658.79</ele>
        <time>2021-08-02T08:50:14Z</time>
      </trkpt>
      <trkpt lat="42.24945" lon="0.50363">
        <ele>657.39</ele>
        <time>2021-08-02T08:50:15Z</time>
      </trkpt>
      <trkpt lat="42.24962" lon="0.50312">
        <ele>652.02</ele>
        <time>2021-08-02T08:50:19Z</time>
      </trkpt>
      <trkpt lat="42.2497" lon="0.50293">
        <ele>649.47</ele>
        <time>2021-08-02T08:50:21Z</time>
      </trkpt>
      <trkpt lat="42.24969" lon="0.50255">
        <ele>644.56</ele>
        <time>2021-08-02T08:50:25Z</time>
      </trkpt>
      <trkpt lat="42.24939" lon="0.50256">
        <ele>640.88</ele>
        <time>2021-08-02T08:50:29Z</time>
      </trkpt>
      <trkpt lat="42.24914" lon="0.5027">
        <ele>639.62</ele>
        <time>2021-08-02T08:50:32Z</time>
      </trkpt>
      <trkpt lat="42.24906" lon="0.50275">
        <ele>639.51</ele>
        <time>2021-08-02T08:50:33Z</time>
      </trkpt>
      <trkpt lat="42.24881" lon="0.50281">
        <ele>640.06</ele>
        <time>2021-08-02T08:50:36Z</time>
      </trkpt>
      <trkpt lat="42.24851" lon="0.50296">
        <ele>642.36</ele>
        <time>2021-08-02T08:50:40Z</time>
      </trkpt>
      <trkpt lat="42.24796" lon="0.50307">
        <ele>646.91</ele>
        <time>2021-08-02T08:50:46Z</time>
      </trkpt>
      <trkpt lat="42.24788" lon="0.50306">
        <ele>647.68</ele>
        <time>2021-08-02T08:50:47Z</time>
      </trkpt>
      <trkpt lat="42.24756" lon="0.50288">
        <ele>650.41</ele>
        <time>2021-08-02T08:50:52Z</time>
      </trkpt>
      <trkpt lat="42.24755" lon="0.50255">
        <ele>650.54</ele>
        <time>2021-08-02T08:50:55Z</time>
      </trkpt>
      <trkpt lat="42.24735" lon="0.50209">
        <ele>647.56</ele>
        <time>2021-08-02T08:51:01Z</time>
      </trkpt>
      <trkpt lat="42.24704" lon="0.50245">
        <ele>644.32</ele>
        <time>2021-08-02T08:51:06Z</time>
      </trkpt>
      <trkpt lat="42.24693" lon="0.50305">
        <ele>643.06</ele>
        <time>2021-08-02T08:51:11Z</time>
      </trkpt>
      <trkpt lat="42.24683" lon="0.50368">
        <ele>643.66</ele>
        <time>2021-08-02T08:51:16Z</time>
      </trkpt>
      <trkpt lat="42.24664" lon="0.50409">
        <ele>646.02</ele>
        <time>2021-08-02T08:51:20Z</time>
      </trkpt>
      <trkpt lat="42.24626" lon="0.50415">
        <ele>649.8</ele>
        <time>2021-08-02T08:51:25Z</time>
      </trkpt>
      <trkpt lat="42.24616" lon="0.5041">
        <ele>650.51</ele>
        <time>2021-08-02T08:51:26Z</time>
      </trkpt>
      <trkpt lat="42.24594" lon="0.504">
        <ele>652.21</ele>
        <time>2021-08-02T08:51:28Z</time>
      </trkpt>
      <trkpt lat="42.24548" lon="0.50402">
        <ele>655.69</ele>
        <time>2021-08-02T08:51:32Z</time>
      </trkpt>
      <trkpt lat="42.24485" lon="0.50419">
        <ele>660.02</ele>
        <time>2021-08-02T08:51:37Z</time>
      </trkpt>
      <trkpt lat="42.24449" lon="0.50418">
        <ele>664.03</ele>
        <time>2021-08-02T08:51:43Z</time>
      </trkpt>
      <trkpt lat="42.24428" lon="0.5039">
        <ele>667.01</ele>
        <time>2021-08-02T08:51:50Z</time>
      </trkpt>
      <trkpt lat="42.24431" lon="0.50383">
        <ele>667.28</ele>
        <time>2021-08-02T08:51:51Z</time>
      </trkpt>
      <trkpt lat="42.24436" lon="0.50377">
        <ele>667.5</ele>
        <time>2021-08-02T08:51:52Z</time>
      </trkpt>
      <trkpt lat="42.24443" lon="0.5037">
        <ele>667.68</ele>
        <time>2021-08-02T08:51:53Z</time>
      </trkpt>
      <trkpt lat="42.24452" lon="0.50362">
        <ele>667.88</ele>
        <time>2021-08-02T08:51:54Z</time>
      </trkpt>
      <trkpt lat="42.24502" lon="0.50306">
        <ele>669.76</ele>
        <time>2021-08-02T08:52:00Z</time>
      </trkpt>
      <trkpt lat="42.24517" lon="0.5026">
        <ele>671.16</ele>
        <time>2021-08-02T08:52:04Z</time>
      </trkpt>
      <trkpt lat="42.24538" lon="0.5022">
        <ele>672.19</ele>
        <time>2021-08-02T08:52:08Z</time>
      </trkpt>
      <trkpt lat="42.24608" lon="0.50096">
        <ele>674.1</ele>
        <time>2021-08-02T08:52:17Z</time>
      </trkpt>
      <trkpt lat="42.24614" lon="0.50085">
        <ele>674.31</ele>
        <time>2021-08-02T08:52:18Z</time>
      </trkpt>
      <trkpt lat="42.24634" lon="0.50034">
        <ele>675.42</ele>
        <time>2021-08-02T08:52:22Z</time>
      </trkpt>
      <trkpt lat="42.24667" lon="0.5">
        <ele>677.07</ele>
        <time>2021-08-02T08:52:27Z</time>
      </trkpt>
      <trkpt lat="42.24683" lon="0.49993">
        <ele>678.11</ele>
        <time>2021-08-02T08:52:29Z</time>
      </trkpt>
      <trkpt lat="42.24709" lon="0.49945">
        <ele>682.17</ele>
        <time>2021-08-02T08:52:35Z</time>
      </trkpt>
      <trkpt lat="42.24716" lon="0.49924">
        <ele>683.4</ele>
        <time>2021-08-02T08:52:37Z</time>
      </trkpt>
      <trkpt lat="42.24732" lon="0.49889">
        <ele>687.36</ele>
        <time>2021-08-02T08:52:44Z</time>
      </trkpt>
      <trkpt lat="42.24745" lon="0.49859">
        <ele>689.72</ele>
        <time>2021-08-02T08:52:56Z</time>
      </trkpt>
      <trkpt lat="42.24749" lon="0.49851">
        <ele>689.9</ele>
        <time>2021-08-02T08:52:57Z</time>
      </trkpt>
      <trkpt lat="42.24741" lon="0.49782">
        <ele>691.61</ele>
        <time>2021-08-02T08:53:03Z</time>
      </trkpt>
      <trkpt lat="42.24743" lon="0.49728">
        <ele>692.47</ele>
        <time>2021-08-02T08:53:07Z</time>
      </trkpt>
      <trkpt lat="42.2475" lon="0.49699">
        <ele>692.98</ele>
        <time>2021-08-02T08:53:09Z</time>
      </trkpt>
      <trkpt lat="42.24808" lon="0.49605">
        <ele>694.02</ele>
        <time>2021-08-02T08:53:16Z</time>
      </trkpt>
      <trkpt lat="42.24834" lon="0.49557">
        <ele>693.81</ele>
        <time>2021-08-02T08:53:20Z</time>
      </trkpt>
      <trkpt lat="42.24859" lon="0.49504">
        <ele>691.74</ele>
        <time>2021-08-02T08:53:25Z</time>
      </trkpt>
      <trkpt lat="42.24882" lon="0.49448">
        <ele>689.9</ele>
        <time>2021-08-02T08:53:30Z</time>
      </trkpt>
      <trkpt lat="42.2489" lon="0.49492">
        <ele>688.47</ele>
        <time>2021-08-02T08:53:35Z</time>
      </trkpt>
      <trkpt lat="42.24884" lon="0.49579">
        <ele>689.61</ele>
        <time>2021-08-02T08:53:40Z</time>
      </trkpt>
      <trkpt lat="42.24909" lon="0.49629">
        <ele>693.54</ele>
        <time>2021-08-02T08:53:46Z</time>
      </trkpt>
      <trkpt lat="42.24932" lon="0.49582">
        <ele>695.95</ele>
        <time>2021-08-02T08:53:50Z</time>
      </trkpt>
      <trkpt lat="42.24964" lon="0.49506">
        <ele>700.15</ele>
        <time>2021-08-02T08:53:55Z</time>
      </trkpt>
      <trkpt lat="42.24971" lon="0.49489">
        <ele>701.22</ele>
        <time>2021-08-02T08:53:56Z</time>
      </trkpt>
      <trkpt lat="42.24985" lon="0.49397">
        <ele>706.07</ele>
        <time>2021-08-02T08:54:01Z</time>
      </trkpt>
      <trkpt lat="42.24981" lon="0.49343">
        <ele>708.9</ele>
        <time>2021-08-02T08:54:04Z</time>
      </trkpt>
      <trkpt lat="42.2496" lon="0.49271">
        <ele>713.16</ele>
        <time>2021-08-02T08:54:09Z</time>
      </trkpt>
      <trkpt lat="42.24961" lon="0.49213">
        <ele>716.66</ele>
        <time>2021-08-02T08:54:13Z</time>
      </trkpt>
      <trkpt lat="42.24969" lon="0.49186">
        <ele>718.78</ele>
        <time>2021-08-02T08:54:15Z</time>
      </trkpt>
      <trkpt lat="42.24977" lon="0.49162">
        <ele>720.87</ele>
        <time>2021-08-02T08:54:17Z</time>
      </trkpt>
      <trkpt lat="42.24984" lon="0.49119">
        <ele>724.38</ele>
        <time>2021-08-02T08:54:21Z</time>
      </trkpt>
      <trkpt lat="42.24996" lon="0.49064">
        <ele>728.42</ele>
        <time>2021-08-02T08:54:29Z</time>
      </trkpt>
      <trkpt lat="42.24997" lon="0.4905">
        <ele>729.13</ele>
        <time>2021-08-02T08:54:31Z</time>
      </trkpt>
      <trkpt lat="42.25007" lon="0.48959">
        <ele>732.51</ele>
        <time>2021-08-02T08:54:43Z</time>
      </trkpt>
      <trkpt lat="42.25008" lon="0.4895">
        <ele>733.23</ele>
        <time>2021-08-02T08:54:44Z</time>
      </trkpt>
      <trkpt lat="42.24984" lon="0.48877">
        <ele>736.37</ele>
        <time>2021-08-02T08:54:51Z</time>
      </trkpt>
      <trkpt lat="42.24975" lon="0.48869">
        <ele>736.98</ele>
        <time>2021-08-02T08:54:52Z</time>
      </trkpt>
      <trkpt lat="42.24956" lon="0.48852">
        <ele>738.25</ele>
        <time>2021-08-02T08:54:54Z</time>
      </trkpt>
      <trkpt lat="42.2494" lon="0.48797">
        <ele>741.88</ele>
        <time>2021-08-02T08:54:59Z</time>
      </trkpt>
      <trkpt lat="42.24945" lon="0.48772">
        <ele>743.7</ele>
        <time>2021-08-02T08:55:01Z</time>
      </trkpt>
      <trkpt lat="42.24959" lon="0.4872">
        <ele>746.57</ele>
        <time>2021-08-02T08:55:05Z</time>
      </trkpt>
      <trkpt lat="42.24952" lon="0.4865">
        <ele>750.71</ele>
        <time>2021-08-02T08:55:11Z</time>
      </trkpt>
      <trkpt lat="42.2494" lon="0.48596">
        <ele>754.11</ele>
        <time>2021-08-02T08:55:15Z</time>
      </trkpt>
      <trkpt lat="42.24946" lon="0.48559">
        <ele>756.61</ele>
        <time>2021-08-02T08:55:18Z</time>
      </trkpt>
      <trkpt lat="42.24962" lon="0.48497">
        <ele>761.12</ele>
        <time>2021-08-02T08:55:23Z</time>
      </trkpt>
      <trkpt lat="42.24982" lon="0.48463">
        <ele>763.53</ele>
        <time>2021-08-02T08:55:26Z</time>
      </trkpt>
      <trkpt lat="42.25023" lon="0.48417">
        <ele>767.17</ele>
        <time>2021-08-02T08:55:32Z</time>
      </trkpt>
      <trkpt lat="42.25059" lon="0.48337">
        <ele>770.7</ele>
        <time>2021-08-02T08:55:38Z</time>
      </trkpt>
      <trkpt lat="42.25095" lon="0.48266">
        <ele>774.02</ele>
        <time>2021-08-02T08:55:45Z</time>
      </trkpt>
      <trkpt lat="42.25097" lon="0.4826">
        <ele>774.5</ele>
        <time>2021-08-02T08:55:46Z</time>
      </trkpt>
      <trkpt lat="42.25099" lon="0.48248">
        <ele>775.56</ele>
        <time>2021-08-02T08:55:48Z</time>
      </trkpt>
      <trkpt lat="42.25099" lon="0.48243">
        <ele>776.03</ele>
        <time>2021-08-02T08:55:49Z</time>
      </trkpt>
      <trkpt lat="42.251" lon="0.48237">
        <ele>776.39</ele>
        <time>2021-08-02T08:55:50Z</time>
      </trkpt>
      <trkpt lat="42.25133" lon="0.48226">
        <ele>777.6</ele>
        <time>2021-08-02T08:55:55Z</time>
      </trkpt>
      <trkpt lat="42.25176" lon="0.48245">
        <ele>779.54</ele>
        <time>2021-08-02T08:56:00Z</time>
      </trkpt>
      <trkpt lat="42.25212" lon="0.48279">
        <ele>781.21</ele>
        <time>2021-08-02T08:56:04Z</time>
      </trkpt>
      <trkpt lat="42.25232" lon="0.48309">
        <ele>781.81</ele>
        <time>2021-08-02T08:56:07Z</time>
      </trkpt>
      <trkpt lat="42.25311" lon="0.48347">
        <ele>783.47</ele>
        <time>2021-08-02T08:56:15Z</time>
      </trkpt>
      <trkpt lat="42.25335" lon="0.48352">
        <ele>784.17</ele>
        <time>2021-08-02T08:56:17Z</time>
      </trkpt>
      <trkpt lat="42.25442" lon="0.48369">
        <ele>783.94</ele>
        <time>2021-08-02T08:56:27Z</time>
      </trkpt>
      <trkpt lat="42.25544" lon="0.48378">
        <ele>781.99</ele>
        <time>2021-08-02T08:56:37Z</time>
      </trkpt>
      <trkpt lat="42.25608" lon="0.48383">
        <ele>778.88</ele>
        <time>2021-08-02T08:56:43Z</time>
      </trkpt>
      <trkpt lat="42.25618" lon="0.48384">
        <ele>778.05</ele>
        <time>2021-08-02T08:56:44Z</time>
      </trkpt>
      <trkpt lat="42.25653" lon="0.48377">
        <ele>775.26</ele>
        <time>2021-08-02T08:56:48Z</time>
      </trkpt>
      <trkpt lat="42.25691" lon="0.48357">
        <ele>771.47</ele>
        <time>2021-08-02T08:56:57Z</time>
      </trkpt>
      <trkpt lat="42.25717" lon="0.48354">
        <ele>772.55</ele>
        <time>2021-08-02T08:57:03Z</time>
      </trkpt>
      <trkpt lat="42.25765" lon="0.48341">
        <ele>776.28</ele>
        <time>2021-08-02T08:57:10Z</time>
      </trkpt>
      <trkpt lat="42.25803" lon="0.48343">
        <ele>779.51</ele>
        <time>2021-08-02T08:57:15Z</time>
      </trkpt>
      <trkpt lat="42.25813" lon="0.48345">
        <ele>780.24</ele>
        <time>2021-08-02T08:57:16Z</time>
      </trkpt>
      <trkpt lat="42.25828" lon="0.48372">
        <ele>782.91</ele>
        <time>2021-08-02T08:57:20Z</time>
      </trkpt>
      <trkpt lat="42.25825" lon="0.4838">
        <ele>783.57</ele>
        <time>2021-08-02T08:57:21Z</time>
      </trkpt>
      <trkpt lat="42.25821" lon="0.48389">
        <ele>784.28</ele>
        <time>2021-08-02T08:57:22Z</time>
      </trkpt>
      <trkpt lat="42.25829" lon="0.48419">
        <ele>787.56</ele>
        <time>2021-08-02T08:57:26Z</time>
      </trkpt>
      <trkpt lat="42.25856" lon="0.48407">
        <ele>791.32</ele>
        <time>2021-08-02T08:57:30Z</time>
      </trkpt>
      <trkpt lat="42.25861" lon="0.48384">
        <ele>793.19</ele>
        <time>2021-08-02T08:57:32Z</time>
      </trkpt>
      <trkpt lat="42.25891" lon="0.48318">
        <ele>798.64</ele>
        <time>2021-08-02T08:57:38Z</time>
      </trkpt>
      <trkpt lat="42.25901" lon="0.48311">
        <ele>799.56</ele>
        <time>2021-08-02T08:57:39Z</time>
      </trkpt>
      <trkpt lat="42.25932" lon="0.48295">
        <ele>802.68</ele>
        <time>2021-08-02T08:57:42Z</time>
      </trkpt>
      <trkpt lat="42.25963" lon="0.48291">
        <ele>806.15</ele>
        <time>2021-08-02T08:57:45Z</time>
      </trkpt>
      <trkpt lat="42.25984" lon="0.48269">
        <ele>809.78</ele>
        <time>2021-08-02T08:57:48Z</time>
      </trkpt>
      <trkpt lat="42.25987" lon="0.4824">
        <ele>812.31</ele>
        <time>2021-08-02T08:57:50Z</time>
      </trkpt>
      <trkpt lat="42.2601" lon="0.48167">
        <ele>817.67</ele>
        <time>2021-08-02T08:57:55Z</time>
      </trkpt>
      <trkpt lat="42.26019" lon="0.48155">
        <ele>818.76</ele>
        <time>2021-08-02T08:57:56Z</time>
      </trkpt>
      <trkpt lat="42.26051" lon="0.48126">
        <ele>823.48</ele>
        <time>2021-08-02T08:57:59Z</time>
      </trkpt>
      <trkpt lat="42.26063" lon="0.48118">
        <ele>823.48</ele>
        <time>2021-08-02T08:58:00Z</time>
      </trkpt>
      <trkpt lat="42.26088" lon="0.48103">
        <ele>827.59</ele>
        <time>2021-08-02T08:58:02Z</time>
      </trkpt>
      <trkpt lat="42.26125" lon="0.48081">
        <ele>831.82</ele>
        <time>2021-08-02T08:58:05Z</time>
      </trkpt>
      <trkpt lat="42.26136" lon="0.48073">
        <ele>833.24</ele>
        <time>2021-08-02T08:58:06Z</time>
      </trkpt>
      <trkpt lat="42.26168" lon="0.48047">
        <ele>837.84</ele>
        <time>2021-08-02T08:58:09Z</time>
      </trkpt>
      <trkpt lat="42.26191" lon="0.48036">
        <ele>840.99</ele>
        <time>2021-08-02T08:58:11Z</time>
      </trkpt>
      <trkpt lat="42.26228" lon="0.48017">
        <ele>845.37</ele>
        <time>2021-08-02T08:58:14Z</time>
      </trkpt>
      <trkpt lat="42.26266" lon="0.48002">
        <ele>849.78</ele>
        <time>2021-08-02T08:58:17Z</time>
      </trkpt>
      <trkpt lat="42.26292" lon="0.47991">
        <ele>852.91</ele>
        <time>2021-08-02T08:58:19Z</time>
      </trkpt>
      <trkpt lat="42.26305" lon="0.47985">
        <ele>854.43</ele>
        <time>2021-08-02T08:58:20Z</time>
      </trkpt>
      <trkpt lat="42.26337" lon="0.47954">
        <ele>859.13</ele>
        <time>2021-08-02T08:58:23Z</time>
      </trkpt>
      <trkpt lat="42.26352" lon="0.47924">
        <ele>862.35</ele>
        <time>2021-08-02T08:58:25Z</time>
      </trkpt>
      <trkpt lat="42.26365" lon="0.47891">
        <ele>865.49</ele>
        <time>2021-08-02T08:58:27Z</time>
      </trkpt>
      <trkpt lat="42.26392" lon="0.47851">
        <ele>870.12</ele>
        <time>2021-08-02T08:58:30Z</time>
      </trkpt>
      <trkpt lat="42.26413" lon="0.47833">
        <ele>873.27</ele>
        <time>2021-08-02T08:58:32Z</time>
      </trkpt>
      <trkpt lat="42.26437" lon="0.47829">
        <ele>876.43</ele>
        <time>2021-08-02T08:58:34Z</time>
      </trkpt>
      <trkpt lat="42.26461" lon="0.47831">
        <ele>879.68</ele>
        <time>2021-08-02T08:58:36Z</time>
      </trkpt>
      <trkpt lat="42.26487" lon="0.4783">
        <ele>882.92</ele>
        <time>2021-08-02T08:58:38Z</time>
      </trkpt>
      <trkpt lat="42.26526" lon="0.47824">
        <ele>888.02</ele>
        <time>2021-08-02T08:58:41Z</time>
      </trkpt>
      <trkpt lat="42.26552" lon="0.47818">
        <ele>891.6</ele>
        <time>2021-08-02T08:58:43Z</time>
      </trkpt>
      <trkpt lat="42.26577" lon="0.47813">
        <ele>895.25</ele>
        <time>2021-08-02T08:58:45Z</time>
      </trkpt>
      <trkpt lat="42.266" lon="0.47809">
        <ele>899.04</ele>
        <time>2021-08-02T08:58:47Z</time>
      </trkpt>
      <trkpt lat="42.26623" lon="0.47793">
        <ele>904.38</ele>
        <time>2021-08-02T08:58:50Z</time>
      </trkpt>
      <trkpt lat="42.26621" lon="0.47769">
        <ele>908.39</ele>
        <time>2021-08-02T08:58:53Z</time>
      </trkpt>
      <trkpt lat="42.26595" lon="0.47745">
        <ele>911.48</ele>
        <time>2021-08-02T08:58:58Z</time>
      </trkpt>
      <trkpt lat="42.26591" lon="0.47736">
        <ele>911.91</ele>
        <time>2021-08-02T08:58:59Z</time>
      </trkpt>
      <trkpt lat="42.26559" lon="0.47621">
        <ele>913.43</ele>
        <time>2021-08-02T08:59:08Z</time>
      </trkpt>
      <trkpt lat="42.26553" lon="0.47597">
        <ele>913.49</ele>
        <time>2021-08-02T08:59:10Z</time>
      </trkpt>
      <trkpt lat="42.26556" lon="0.4754">
        <ele>913.26</ele>
        <time>2021-08-02T08:59:15Z</time>
      </trkpt>
      <trkpt lat="42.26573" lon="0.47488">
        <ele>912.25</ele>
        <time>2021-08-02T08:59:19Z</time>
      </trkpt>
      <trkpt lat="42.26617" lon="0.4743">
        <ele>910.55</ele>
        <time>2021-08-02T08:59:25Z</time>
      </trkpt>
      <trkpt lat="42.2664" lon="0.47397">
        <ele>907.07</ele>
        <time>2021-08-02T08:59:31Z</time>
      </trkpt>
      <trkpt lat="42.26625" lon="0.47356">
        <ele>905.06</ele>
        <time>2021-08-02T08:59:35Z</time>
      </trkpt>
      <trkpt lat="42.26646" lon="0.47312">
        <ele>906.15</ele>
        <time>2021-08-02T08:59:40Z</time>
      </trkpt>
      <trkpt lat="42.26661" lon="0.47298">
        <ele>906.97</ele>
        <time>2021-08-02T08:59:42Z</time>
      </trkpt>
      <trkpt lat="42.26687" lon="0.47255">
        <ele>908.98</ele>
        <time>2021-08-02T08:59:46Z</time>
      </trkpt>
      <trkpt lat="42.26709" lon="0.47188">
        <ele>913.06</ele>
        <time>2021-08-02T08:59:51Z</time>
      </trkpt>
      <trkpt lat="42.26718" lon="0.47141">
        <ele>916.25</ele>
        <time>2021-08-02T08:59:54Z</time>
      </trkpt>
      <trkpt lat="42.26738" lon="0.47082">
        <ele>921.06</ele>
        <time>2021-08-02T08:59:58Z</time>
      </trkpt>
      <trkpt lat="42.26762" lon="0.47058">
        <ele>924.27</ele>
        <time>2021-08-02T09:00:01Z</time>
      </trkpt>
      <trkpt lat="42.26789" lon="0.47055">
        <ele>927.78</ele>
        <time>2021-08-02T09:00:04Z</time>
      </trkpt>
      <trkpt lat="42.26815" lon="0.47026">
        <ele>933.17</ele>
        <time>2021-08-02T09:00:11Z</time>
      </trkpt>
      <trkpt lat="42.26819" lon="0.47006">
        <ele>934.4</ele>
        <time>2021-08-02T09:00:13Z</time>
      </trkpt>
      <trkpt lat="42.26843" lon="0.46937">
        <ele>937.66</ele>
        <time>2021-08-02T09:00:18Z</time>
      </trkpt>
      <trkpt lat="42.26853" lon="0.46873">
        <ele>939.9</ele>
        <time>2021-08-02T09:00:22Z</time>
      </trkpt>
      <trkpt lat="42.26884" lon="0.46824">
        <ele>944.11</ele>
        <time>2021-08-02T09:00:28Z</time>
      </trkpt>
      <trkpt lat="42.26909" lon="0.46806">
        <ele>947.87</ele>
        <time>2021-08-02T09:00:32Z</time>
      </trkpt>
      <trkpt lat="42.26955" lon="0.46786">
        <ele>952.56</ele>
        <time>2021-08-02T09:00:37Z</time>
      </trkpt>
      <trkpt lat="42.2698" lon="0.46767">
        <ele>955.44</ele>
        <time>2021-08-02T09:00:40Z</time>
      </trkpt>
      <trkpt lat="42.27012" lon="0.46729">
        <ele>960.85</ele>
        <time>2021-08-02T09:00:46Z</time>
      </trkpt>
      <trkpt lat="42.2701" lon="0.46705">
        <ele>962.55</ele>
        <time>2021-08-02T09:00:48Z</time>
      </trkpt>
      <trkpt lat="42.27003" lon="0.46653">
        <ele>965.64</ele>
        <time>2021-08-02T09:00:52Z</time>
      </trkpt>
      <trkpt lat="42.27007" lon="0.46608">
        <ele>970.14</ele>
        <time>2021-08-02T09:00:57Z</time>
      </trkpt>
      <trkpt lat="42.2701" lon="0.46599">
        <ele>971.03</ele>
        <time>2021-08-02T09:00:58Z</time>
      </trkpt>
      <trkpt lat="42.2704" lon="0.46539">
        <ele>973.96</ele>
        <time>2021-08-02T09:01:03Z</time>
      </trkpt>
      <trkpt lat="42.27068" lon="0.4642">
        <ele>973.73</ele>
        <time>2021-08-02T09:01:11Z</time>
      </trkpt>
      <trkpt lat="42.27084" lon="0.46397">
        <ele>973.31</ele>
        <time>2021-08-02T09:01:14Z</time>
      </trkpt>
      <trkpt lat="42.27106" lon="0.46348">
        <ele>972.14</ele>
        <time>2021-08-02T09:01:19Z</time>
      </trkpt>
      <trkpt lat="42.27102" lon="0.46283">
        <ele>970.52</ele>
        <time>2021-08-02T09:01:24Z</time>
      </trkpt>
      <trkpt lat="42.27097" lon="0.46198">
        <ele>967.33</ele>
        <time>2021-08-02T09:01:30Z</time>
      </trkpt>
      <trkpt lat="42.27089" lon="0.46183">
        <ele>966.63</ele>
        <time>2021-08-02T09:01:32Z</time>
      </trkpt>
      <trkpt lat="42.27074" lon="0.46172">
        <ele>966.4</ele>
        <time>2021-08-02T09:01:34Z</time>
      </trkpt>
      <trkpt lat="42.27058" lon="0.4616">
        <ele>966.37</ele>
        <time>2021-08-02T09:01:36Z</time>
      </trkpt>
      <trkpt lat="42.27041" lon="0.46149">
        <ele>966.69</ele>
        <time>2021-08-02T09:01:38Z</time>
      </trkpt>
      <trkpt lat="42.27017" lon="0.46091">
        <ele>967.35</ele>
        <time>2021-08-02T09:01:46Z</time>
      </trkpt>
      <trkpt lat="42.27017" lon="0.46079">
        <ele>967.34</ele>
        <time>2021-08-02T09:01:47Z</time>
      </trkpt>
      <trkpt lat="42.2702" lon="0.46039">
        <ele>967.5</ele>
        <time>2021-08-02T09:01:50Z</time>
      </trkpt>
      <trkpt lat="42.27013" lon="0.45997">
        <ele>968.33</ele>
        <time>2021-08-02T09:01:53Z</time>
      </trkpt>
      <trkpt lat="42.27012" lon="0.45909">
        <ele>969.22</ele>
        <time>2021-08-02T09:01:58Z</time>
      </trkpt>
      <trkpt lat="42.26999" lon="0.4584">
        <ele>969.73</ele>
        <time>2021-08-02T09:02:02Z</time>
      </trkpt>
      <trkpt lat="42.26952" lon="0.45774">
        <ele>971.54</ele>
        <time>2021-08-02T09:02:08Z</time>
      </trkpt>
      <trkpt lat="42.26933" lon="0.45736">
        <ele>974.99</ele>
        <time>2021-08-02T09:02:13Z</time>
      </trkpt>
      <trkpt lat="42.26932" lon="0.45717">
        <ele>976.13</ele>
        <time>2021-08-02T09:02:15Z</time>
      </trkpt>
      <trkpt lat="42.2693" lon="0.457">
        <ele>977.41</ele>
        <time>2021-08-02T09:02:17Z</time>
      </trkpt>
      <trkpt lat="42.26945" lon="0.45609">
        <ele>980.2</ele>
        <time>2021-08-02T09:02:25Z</time>
      </trkpt>
      <trkpt lat="42.26965" lon="0.45559">
        <ele>976.93</ele>
        <time>2021-08-02T09:02:30Z</time>
      </trkpt>
      <trkpt lat="42.26978" lon="0.45528">
        <ele>973.86</ele>
        <time>2021-08-02T09:02:33Z</time>
      </trkpt>
      <trkpt lat="42.26992" lon="0.45488">
        <ele>970.73</ele>
        <time>2021-08-02T09:02:36Z</time>
      </trkpt>
      <trkpt lat="42.27009" lon="0.4545">
        <ele>967.26</ele>
        <time>2021-08-02T09:02:39Z</time>
      </trkpt>
      <trkpt lat="42.2702" lon="0.45429">
        <ele>965.07</ele>
        <time>2021-08-02T09:02:41Z</time>
      </trkpt>
      <trkpt lat="42.27055" lon="0.45398">
        <ele>960.33</ele>
        <time>2021-08-02T09:02:46Z</time>
      </trkpt>
      <trkpt lat="42.27064" lon="0.45395">
        <ele>959.44</ele>
        <time>2021-08-02T09:02:47Z</time>
      </trkpt>
      <trkpt lat="42.27095" lon="0.45389">
        <ele>957.24</ele>
        <time>2021-08-02T09:02:50Z</time>
      </trkpt>
      <trkpt lat="42.27125" lon="0.45367">
        <ele>954.15</ele>
        <time>2021-08-02T09:02:54Z</time>
      </trkpt>
      <trkpt lat="42.27165" lon="0.45344">
        <ele>949.45</ele>
        <time>2021-08-02T09:02:59Z</time>
      </trkpt>
      <trkpt lat="42.27174" lon="0.45342">
        <ele>948.66</ele>
        <time>2021-08-02T09:03:00Z</time>
      </trkpt>
      <trkpt lat="42.27215" lon="0.45354">
        <ele>944.31</ele>
        <time>2021-08-02T09:03:05Z</time>
      </trkpt>
      <trkpt lat="42.27233" lon="0.45329">
        <ele>940.85</ele>
        <time>2021-08-02T09:03:10Z</time>
      </trkpt>
      <trkpt lat="42.27231" lon="0.45321">
        <ele>940.27</ele>
        <time>2021-08-02T09:03:11Z</time>
      </trkpt>
      <trkpt lat="42.27228" lon="0.45251">
        <ele>939.1</ele>
        <time>2021-08-02T09:03:17Z</time>
      </trkpt>
      <trkpt lat="42.27226" lon="0.45224">
        <ele>939.39</ele>
        <time>2021-08-02T09:03:19Z</time>
      </trkpt>
      <trkpt lat="42.27247" lon="0.4516">
        <ele>940.07</ele>
        <time>2021-08-02T09:03:25Z</time>
      </trkpt>
      <trkpt lat="42.27301" lon="0.45073">
        <ele>940.13</ele>
        <time>2021-08-02T09:03:33Z</time>
      </trkpt>
      <trkpt lat="42.2731" lon="0.45047">
        <ele>939.77</ele>
        <time>2021-08-02T09:03:35Z</time>
      </trkpt>
      <trkpt lat="42.27357" lon="0.4495">
        <ele>936.99</ele>
        <time>2021-08-02T09:03:42Z</time>
      </trkpt>
      <trkpt lat="42.27377" lon="0.44859">
        <ele>932.92</ele>
        <time>2021-08-02T09:03:48Z</time>
      </trkpt>
      <trkpt lat="42.27405" lon="0.44801">
        <ele>929.65</ele>
        <time>2021-08-02T09:03:53Z</time>
      </trkpt>
      <trkpt lat="42.27422" lon="0.44779">
        <ele>928.36</ele>
        <time>2021-08-02T09:03:55Z</time>
      </trkpt>
      <trkpt lat="42.27482" lon="0.44752">
        <ele>925.26</ele>
        <time>2021-08-02T09:04:02Z</time>
      </trkpt>
      <trkpt lat="42.27497" lon="0.44764">
        <ele>925.08</ele>
        <time>2021-08-02T09:04:04Z</time>
      </trkpt>
      <trkpt lat="42.27511" lon="0.44776">
        <ele>925.04</ele>
        <time>2021-08-02T09:04:06Z</time>
      </trkpt>
      <trkpt lat="42.27529" lon="0.44789">
        <ele>925.11</ele>
        <time>2021-08-02T09:04:09Z</time>
      </trkpt>
      <trkpt lat="42.27545" lon="0.44808">
        <ele>925.44</ele>
        <time>2021-08-02T09:04:13Z</time>
      </trkpt>
      <trkpt lat="42.27591" lon="0.44878">
        <ele>927.45</ele>
        <time>2021-08-02T09:04:22Z</time>
      </trkpt>
      <trkpt lat="42.27602" lon="0.44893">
        <ele>927.97</ele>
        <time>2021-08-02T09:04:24Z</time>
      </trkpt>
      <trkpt lat="42.2763" lon="0.44871">
        <ele>929.01</ele>
        <time>2021-08-02T09:04:30Z</time>
      </trkpt>
      <trkpt lat="42.27628" lon="0.44853">
        <ele>929.19</ele>
        <time>2021-08-02T09:04:31Z</time>
      </trkpt>
      <trkpt lat="42.27627" lon="0.44806">
        <ele>929.71</ele>
        <time>2021-08-02T09:04:34Z</time>
      </trkpt>
      <trkpt lat="42.27624" lon="0.44747">
        <ele>930.68</ele>
        <time>2021-08-02T09:04:38Z</time>
      </trkpt>
      <trkpt lat="42.27626" lon="0.44721">
        <ele>930.75</ele>
        <time>2021-08-02T09:04:40Z</time>
      </trkpt>
      <trkpt lat="42.276" lon="0.44669">
        <ele>930.37</ele>
        <time>2021-08-02T09:04:46Z</time>
      </trkpt>
      <trkpt lat="42.27597" lon="0.44611">
        <ele>929.36</ele>
        <time>2021-08-02T09:04:52Z</time>
      </trkpt>
      <trkpt lat="42.27613" lon="0.44557">
        <ele>927.99</ele>
        <time>2021-08-02T09:04:57Z</time>
      </trkpt>
      <trkpt lat="42.2762" lon="0.445">
        <ele>926.5</ele>
        <time>2021-08-02T09:05:02Z</time>
      </trkpt>
      <trkpt lat="42.27603" lon="0.44434">
        <ele>924.78</ele>
        <time>2021-08-02T09:05:10Z</time>
      </trkpt>
      <trkpt lat="42.27578" lon="0.44417">
        <ele>924.86</ele>
        <time>2021-08-02T09:05:13Z</time>
      </trkpt>
      <trkpt lat="42.27533" lon="0.44363">
        <ele>926.2</ele>
        <time>2021-08-02T09:05:20Z</time>
      </trkpt>
      <trkpt lat="42.27539" lon="0.44302">
        <ele>927.22</ele>
        <time>2021-08-02T09:05:26Z</time>
      </trkpt>
      <trkpt lat="42.27568" lon="0.44244">
        <ele>928.46</ele>
        <time>2021-08-02T09:05:31Z</time>
      </trkpt>
      <trkpt lat="42.27567" lon="0.44179">
        <ele>932.08</ele>
        <time>2021-08-02T09:05:38Z</time>
      </trkpt>
      <trkpt lat="42.27536" lon="0.44117">
        <ele>936.09</ele>
        <time>2021-08-02T09:05:45Z</time>
      </trkpt>
      <trkpt lat="42.27492" lon="0.44007">
        <ele>938.35</ele>
        <time>2021-08-02T09:05:54Z</time>
      </trkpt>
      <trkpt lat="42.27472" lon="0.43958">
        <ele>937.96</ele>
        <time>2021-08-02T09:05:59Z</time>
      </trkpt>
      <trkpt lat="42.27473" lon="0.4392">
        <ele>937.78</ele>
        <time>2021-08-02T09:06:03Z</time>
      </trkpt>
      <trkpt lat="42.2748" lon="0.43892">
        <ele>937.68</ele>
        <time>2021-08-02T09:06:06Z</time>
      </trkpt>
      <trkpt lat="42.27499" lon="0.43855">
        <ele>937.42</ele>
        <time>2021-08-02T09:06:10Z</time>
      </trkpt>
      <trkpt lat="42.27505" lon="0.43792">
        <ele>937.43</ele>
        <time>2021-08-02T09:06:16Z</time>
      </trkpt>
      <trkpt lat="42.27467" lon="0.43703">
        <ele>935.4</ele>
        <time>2021-08-02T09:06:25Z</time>
      </trkpt>
      <trkpt lat="42.2743" lon="0.43653">
        <ele>933.5</ele>
        <time>2021-08-02T09:06:30Z</time>
      </trkpt>
      <trkpt lat="42.27366" lon="0.43601">
        <ele>930.62</ele>
        <time>2021-08-02T09:06:37Z</time>
      </trkpt>
      <trkpt lat="42.2734" lon="0.43549">
        <ele>927.5</ele>
        <time>2021-08-02T09:06:43Z</time>
      </trkpt>
      <trkpt lat="42.27322" lon="0.43459">
        <ele>923.81</ele>
        <time>2021-08-02T09:06:51Z</time>
      </trkpt>
      <trkpt lat="42.27278" lon="0.43401">
        <ele>920</ele>
        <time>2021-08-02T09:06:58Z</time>
      </trkpt>
      <trkpt lat="42.27273" lon="0.43388">
        <ele>919.57</ele>
        <time>2021-08-02T09:06:59Z</time>
      </trkpt>
      <trkpt lat="42.27261" lon="0.43347">
        <ele>918.26</ele>
        <time>2021-08-02T09:07:02Z</time>
      </trkpt>
      <trkpt lat="42.27268" lon="0.43294">
        <ele>916.04</ele>
        <time>2021-08-02T09:07:06Z</time>
      </trkpt>
      <trkpt lat="42.27257" lon="0.43213">
        <ele>912.41</ele>
        <time>2021-08-02T09:07:12Z</time>
      </trkpt>
      <trkpt lat="42.2724" lon="0.43179">
        <ele>911.03</ele>
        <time>2021-08-02T09:07:15Z</time>
      </trkpt>
      <trkpt lat="42.27219" lon="0.43147">
        <ele>909.65</ele>
        <time>2021-08-02T09:07:18Z</time>
      </trkpt>
      <trkpt lat="42.27197" lon="0.43092">
        <ele>907.7</ele>
        <time>2021-08-02T09:07:22Z</time>
      </trkpt>
      <trkpt lat="42.27193" lon="0.43039">
        <ele>905.17</ele>
        <time>2021-08-02T09:07:26Z</time>
      </trkpt>
      <trkpt lat="42.27167" lon="0.42928">
        <ele>901.55</ele>
        <time>2021-08-02T09:07:34Z</time>
      </trkpt>
      <trkpt lat="42.27163" lon="0.42915">
        <ele>901.4</ele>
        <time>2021-08-02T09:07:35Z</time>
      </trkpt>
      <trkpt lat="42.27154" lon="0.42893">
        <ele>901.14</ele>
        <time>2021-08-02T09:07:37Z</time>
      </trkpt>
      <trkpt lat="42.27147" lon="0.42841">
        <ele>900.71</ele>
        <time>2021-08-02T09:07:41Z</time>
      </trkpt>
      <trkpt lat="42.27145" lon="0.42815">
        <ele>900.19</ele>
        <time>2021-08-02T09:07:43Z</time>
      </trkpt>
      <trkpt lat="42.27102" lon="0.42775">
        <ele>897.92</ele>
        <time>2021-08-02T09:07:48Z</time>
      </trkpt>
      <trkpt lat="42.27045" lon="0.42739">
        <ele>896.19</ele>
        <time>2021-08-02T09:07:54Z</time>
      </trkpt>
      <trkpt lat="42.27034" lon="0.42692">
        <ele>893.82</ele>
        <time>2021-08-02T09:07:59Z</time>
      </trkpt>
      <trkpt lat="42.27021" lon="0.42606">
        <ele>890.3</ele>
        <time>2021-08-02T09:08:06Z</time>
      </trkpt>
      <trkpt lat="42.26981" lon="0.42577">
        <ele>887.83</ele>
        <time>2021-08-02T09:08:10Z</time>
      </trkpt>
      <trkpt lat="42.26945" lon="0.42558">
        <ele>885.42</ele>
        <time>2021-08-02T09:08:14Z</time>
      </trkpt>
      <trkpt lat="42.26912" lon="0.42523">
        <ele>883.34</ele>
        <time>2021-08-02T09:08:18Z</time>
      </trkpt>
      <trkpt lat="42.26875" lon="0.42474">
        <ele>881.14</ele>
        <time>2021-08-02T09:08:22Z</time>
      </trkpt>
      <trkpt lat="42.26825" lon="0.42422">
        <ele>876.62</ele>
        <time>2021-08-02T09:08:27Z</time>
      </trkpt>
      <trkpt lat="42.26779" lon="0.4235">
        <ele>872.08</ele>
        <time>2021-08-02T09:08:33Z</time>
      </trkpt>
      <trkpt lat="42.2673" lon="0.42299">
        <ele>868.64</ele>
        <time>2021-08-02T09:08:38Z</time>
      </trkpt>
      <trkpt lat="42.26684" lon="0.42255">
        <ele>865.09</ele>
        <time>2021-08-02T09:08:42Z</time>
      </trkpt>
      <trkpt lat="42.26647" lon="0.42224">
        <ele>861.83</ele>
        <time>2021-08-02T09:08:45Z</time>
      </trkpt>
      <trkpt lat="42.26603" lon="0.42171">
        <ele>857.21</ele>
        <time>2021-08-02T09:08:49Z</time>
      </trkpt>
      <trkpt lat="42.2657" lon="0.4213">
        <ele>853.4</ele>
        <time>2021-08-02T09:08:52Z</time>
      </trkpt>
      <trkpt lat="42.26558" lon="0.42117">
        <ele>852.24</ele>
        <time>2021-08-02T09:08:53Z</time>
      </trkpt>
      <trkpt lat="42.26506" lon="0.42089">
        <ele>847.23</ele>
        <time>2021-08-02T09:08:57Z</time>
      </trkpt>
      <trkpt lat="42.26469" lon="0.4205">
        <ele>841.71</ele>
        <time>2021-08-02T09:09:01Z</time>
      </trkpt>
      <trkpt lat="42.26454" lon="0.42023">
        <ele>839.14</ele>
        <time>2021-08-02T09:09:03Z</time>
      </trkpt>
      <trkpt lat="42.26411" lon="0.41989">
        <ele>834.49</ele>
        <time>2021-08-02T09:09:07Z</time>
      </trkpt>
      <trkpt lat="42.26372" lon="0.41984">
        <ele>831</ele>
        <time>2021-08-02T09:09:10Z</time>
      </trkpt>
      <trkpt lat="42.26333" lon="0.41982">
        <ele>827.8</ele>
        <time>2021-08-02T09:09:13Z</time>
      </trkpt>
      <trkpt lat="42.263" lon="0.41981">
        <ele>825.23</ele>
        <time>2021-08-02T09:09:16Z</time>
      </trkpt>
      <trkpt lat="42.26258" lon="0.41953">
        <ele>820.99</ele>
        <time>2021-08-02T09:09:21Z</time>
      </trkpt>
      <trkpt lat="42.26245" lon="0.41915">
        <ele>817.99</ele>
        <time>2021-08-02T09:09:25Z</time>
      </trkpt>
      <trkpt lat="42.26246" lon="0.41893">
        <ele>816.65</ele>
        <time>2021-08-02T09:09:27Z</time>
      </trkpt>
      <trkpt lat="42.26255" lon="0.4182">
        <ele>812.55</ele>
        <time>2021-08-02T09:09:34Z</time>
      </trkpt>
      <trkpt lat="42.26257" lon="0.41766">
        <ele>809.35</ele>
        <time>2021-08-02T09:09:39Z</time>
      </trkpt>
      <trkpt lat="42.26259" lon="0.41725">
        <ele>806.21</ele>
        <time>2021-08-02T09:09:43Z</time>
      </trkpt>
      <trkpt lat="42.26246" lon="0.41684">
        <ele>802</ele>
        <time>2021-08-02T09:09:48Z</time>
      </trkpt>
      <trkpt lat="42.26251" lon="0.41654">
        <ele>798.14</ele>
        <time>2021-08-02T09:09:53Z</time>
      </trkpt>
      <trkpt lat="42.26264" lon="0.41666">
        <ele>796.53</ele>
        <time>2021-08-02T09:09:55Z</time>
      </trkpt>
      <trkpt lat="42.26294" lon="0.41668">
        <ele>792.6</ele>
        <time>2021-08-02T09:10:02Z</time>
      </trkpt>
      <trkpt lat="42.26281" lon="0.4161">
        <ele>789.48</ele>
        <time>2021-08-02T09:10:08Z</time>
      </trkpt>
      <trkpt lat="42.26277" lon="0.41591">
        <ele>788.09</ele>
        <time>2021-08-02T09:10:10Z</time>
      </trkpt>
      <trkpt lat="42.26272" lon="0.41524">
        <ele>783.74</ele>
        <time>2021-08-02T09:10:16Z</time>
      </trkpt>
      <trkpt lat="42.26265" lon="0.41448">
        <ele>780.15</ele>
        <time>2021-08-02T09:10:21Z</time>
      </trkpt>
      <trkpt lat="42.26256" lon="0.41381">
        <ele>777.13</ele>
        <time>2021-08-02T09:10:25Z</time>
      </trkpt>
      <trkpt lat="42.2625" lon="0.41313">
        <ele>773.39</ele>
        <time>2021-08-02T09:10:29Z</time>
      </trkpt>
      <trkpt lat="42.26246" lon="0.41251">
        <ele>769.44</ele>
        <time>2021-08-02T09:10:33Z</time>
      </trkpt>
      <trkpt lat="42.26246" lon="0.41238">
        <ele>768.4</ele>
        <time>2021-08-02T09:10:34Z</time>
      </trkpt>
      <trkpt lat="42.26255" lon="0.41203">
        <ele>763.87</ele>
        <time>2021-08-02T09:10:38Z</time>
      </trkpt>
      <trkpt lat="42.26281" lon="0.41212">
        <ele>760.35</ele>
        <time>2021-08-02T09:10:41Z</time>
      </trkpt>
      <trkpt lat="42.26301" lon="0.41222">
        <ele>757.57</ele>
        <time>2021-08-02T09:10:44Z</time>
      </trkpt>
      <trkpt lat="42.26326" lon="0.41193">
        <ele>753.43</ele>
        <time>2021-08-02T09:10:50Z</time>
      </trkpt>
      <trkpt lat="42.26317" lon="0.41145">
        <ele>750.98</ele>
        <time>2021-08-02T09:10:54Z</time>
      </trkpt>
      <trkpt lat="42.26315" lon="0.41063">
        <ele>746.31</ele>
        <time>2021-08-02T09:11:01Z</time>
      </trkpt>
      <trkpt lat="42.2632" lon="0.41003">
        <ele>742.68</ele>
        <time>2021-08-02T09:11:06Z</time>
      </trkpt>
      <trkpt lat="42.26322" lon="0.40956">
        <ele>739.85</ele>
        <time>2021-08-02T09:11:10Z</time>
      </trkpt>
      <trkpt lat="42.2632" lon="0.4094">
        <ele>738.59</ele>
        <time>2021-08-02T09:11:12Z</time>
      </trkpt>
      <trkpt lat="42.26315" lon="0.4092">
        <ele>735.09</ele>
        <time>2021-08-02T09:11:17Z</time>
      </trkpt>
      <trkpt lat="42.26314" lon="0.40912">
        <ele>732.06</ele>
        <time>2021-08-02T09:11:27Z</time>
      </trkpt>
      <trkpt lat="42.26314" lon="0.40905">
        <ele>731.3</ele>
        <time>2021-08-02T09:11:39Z</time>
      </trkpt>
      <trkpt lat="42.26304" lon="0.40897">
        <ele>731.19</ele>
        <time>2021-08-02T09:11:45Z</time>
      </trkpt>
      <trkpt lat="42.26313" lon="0.4091">
        <ele>731.09</ele>
        <time>2021-08-02T09:11:48Z</time>
      </trkpt>
      <trkpt lat="42.26324" lon="0.40906">
        <ele>731.04</ele>
        <time>2021-08-02T09:11:54Z</time>
      </trkpt>
      <trkpt lat="42.26331" lon="0.40788">
        <ele>730.29</ele>
        <time>2021-08-02T09:12:05Z</time>
      </trkpt>
      <trkpt lat="42.26331" lon="0.40688">
        <ele>726.73</ele>
        <time>2021-08-02T09:12:13Z</time>
      </trkpt>
      <trkpt lat="42.26332" lon="0.40618">
        <ele>723.32</ele>
        <time>2021-08-02T09:12:18Z</time>
      </trkpt>
      <trkpt lat="42.26331" lon="0.40549">
        <ele>719.55</ele>
        <time>2021-08-02T09:12:23Z</time>
      </trkpt>
      <trkpt lat="42.26331" lon="0.40534">
        <ele>718.63</ele>
        <time>2021-08-02T09:12:24Z</time>
      </trkpt>
      <trkpt lat="42.2634" lon="0.40481">
        <ele>715.15</ele>
        <time>2021-08-02T09:12:28Z</time>
      </trkpt>
      <trkpt lat="42.26337" lon="0.40426">
        <ele>710.76</ele>
        <time>2021-08-02T09:12:33Z</time>
      </trkpt>
      <trkpt lat="42.26306" lon="0.40394">
        <ele>707</ele>
        <time>2021-08-02T09:12:37Z</time>
      </trkpt>
      <trkpt lat="42.26285" lon="0.40348">
        <ele>703.12</ele>
        <time>2021-08-02T09:12:41Z</time>
      </trkpt>
      <trkpt lat="42.2628" lon="0.40295">
        <ele>699.33</ele>
        <time>2021-08-02T09:12:45Z</time>
      </trkpt>
      <trkpt lat="42.26266" lon="0.40233">
        <ele>696.27</ele>
        <time>2021-08-02T09:12:50Z</time>
      </trkpt>
      <trkpt lat="42.26252" lon="0.40172">
        <ele>692.65</ele>
        <time>2021-08-02T09:12:55Z</time>
      </trkpt>
      <trkpt lat="42.26259" lon="0.40114">
        <ele>688.57</ele>
        <time>2021-08-02T09:13:00Z</time>
      </trkpt>
      <trkpt lat="42.26264" lon="0.40087">
        <ele>685.88</ele>
        <time>2021-08-02T09:13:03Z</time>
      </trkpt>
      <trkpt lat="42.26254" lon="0.40052">
        <ele>681.4</ele>
        <time>2021-08-02T09:13:08Z</time>
      </trkpt>
      <trkpt lat="42.26247" lon="0.40012">
        <ele>677.86</ele>
        <time>2021-08-02T09:13:13Z</time>
      </trkpt>
      <trkpt lat="42.26285" lon="0.3997">
        <ele>674.56</ele>
        <time>2021-08-02T09:13:19Z</time>
      </trkpt>
      <trkpt lat="42.2631" lon="0.39942">
        <ele>672.45</ele>
        <time>2021-08-02T09:13:24Z</time>
      </trkpt>
      <trkpt lat="42.26345" lon="0.39855">
        <ele>669.38</ele>
        <time>2021-08-02T09:13:32Z</time>
      </trkpt>
      <trkpt lat="42.26351" lon="0.39831">
        <ele>668.41</ele>
        <time>2021-08-02T09:13:34Z</time>
      </trkpt>
      <trkpt lat="42.2637" lon="0.39793">
        <ele>665.56</ele>
        <time>2021-08-02T09:13:38Z</time>
      </trkpt>
      <trkpt lat="42.26388" lon="0.3977">
        <ele>662.46</ele>
        <time>2021-08-02T09:13:43Z</time>
      </trkpt>
      <trkpt lat="42.26414" lon="0.39776">
        <ele>660.52</ele>
        <time>2021-08-02T09:13:47Z</time>
      </trkpt>
      <trkpt lat="42.26497" lon="0.39769">
        <ele>656.87</ele>
        <time>2021-08-02T09:13:55Z</time>
      </trkpt>
      <trkpt lat="42.26554" lon="0.39771">
        <ele>653.7</ele>
        <time>2021-08-02T09:14:00Z</time>
      </trkpt>
      <trkpt lat="42.26576" lon="0.39774">
        <ele>652.19</ele>
        <time>2021-08-02T09:14:02Z</time>
      </trkpt>
      <trkpt lat="42.26612" lon="0.398">
        <ele>648.34</ele>
        <time>2021-08-02T09:14:06Z</time>
      </trkpt>
      <trkpt lat="42.26652" lon="0.39804">
        <ele>642.94</ele>
        <time>2021-08-02T09:14:11Z</time>
      </trkpt>
      <trkpt lat="42.26685" lon="0.39793">
        <ele>640.15</ele>
        <time>2021-08-02T09:14:14Z</time>
      </trkpt>
      <trkpt lat="42.26706" lon="0.39787">
        <ele>638.4</ele>
        <time>2021-08-02T09:14:16Z</time>
      </trkpt>
      <trkpt lat="42.26767" lon="0.39748">
        <ele>635.81</ele>
        <time>2021-08-02T09:14:22Z</time>
      </trkpt>
      <trkpt lat="42.26814" lon="0.39707">
        <ele>634.7</ele>
        <time>2021-08-02T09:14:27Z</time>
      </trkpt>
      <trkpt lat="42.26859" lon="0.39744">
        <ele>632.33</ele>
        <time>2021-08-02T09:14:33Z</time>
      </trkpt>
      <trkpt lat="42.26866" lon="0.39759">
        <ele>631.95</ele>
        <time>2021-08-02T09:14:34Z</time>
      </trkpt>
      <trkpt lat="42.26902" lon="0.39853">
        <ele>627.63</ele>
        <time>2021-08-02T09:14:40Z</time>
      </trkpt>
      <trkpt lat="42.26922" lon="0.39924">
        <ele>624.04</ele>
        <time>2021-08-02T09:14:44Z</time>
      </trkpt>
      <trkpt lat="42.26957" lon="0.39996">
        <ele>619.18</ele>
        <time>2021-08-02T09:14:49Z</time>
      </trkpt>
      <trkpt lat="42.2697" lon="0.40032">
        <ele>616.86</ele>
        <time>2021-08-02T09:14:53Z</time>
      </trkpt>
      <trkpt lat="42.26991" lon="0.40069">
        <ele>616.36</ele>
        <time>2021-08-02T09:14:57Z</time>
      </trkpt>
      <trkpt lat="42.27027" lon="0.40107">
        <ele>616.58</ele>
        <time>2021-08-02T09:15:02Z</time>
      </trkpt>
      <trkpt lat="42.27062" lon="0.40129">
        <ele>616.9</ele>
        <time>2021-08-02T09:15:06Z</time>
      </trkpt>
      <trkpt lat="42.27087" lon="0.40173">
        <ele>617.28</ele>
        <time>2021-08-02T09:15:11Z</time>
      </trkpt>
      <trkpt lat="42.27122" lon="0.40231">
        <ele>617.02</ele>
        <time>2021-08-02T09:15:18Z</time>
      </trkpt>
      <trkpt lat="42.27161" lon="0.40234">
        <ele>615.38</ele>
        <time>2021-08-02T09:15:22Z</time>
      </trkpt>
      <trkpt lat="42.27199" lon="0.40224">
        <ele>613.59</ele>
        <time>2021-08-02T09:15:26Z</time>
      </trkpt>
      <trkpt lat="42.27223" lon="0.40205">
        <ele>612.81</ele>
        <time>2021-08-02T09:15:30Z</time>
      </trkpt>
      <trkpt lat="42.27264" lon="0.40204">
        <ele>612.27</ele>
        <time>2021-08-02T09:15:37Z</time>
      </trkpt>
      <trkpt lat="42.27276" lon="0.40197">
        <ele>614.79</ele>
        <time>2021-08-02T09:15:44Z</time>
      </trkpt>
      <trkpt lat="42.27265" lon="0.40187">
        <ele>615.29</ele>
        <time>2021-08-02T09:15:45Z</time>
      </trkpt>
      <trkpt lat="42.27223" lon="0.40149">
        <ele>617.54</ele>
        <time>2021-08-02T09:15:49Z</time>
      </trkpt>
      <trkpt lat="42.27187" lon="0.401">
        <ele>620.22</ele>
        <time>2021-08-02T09:15:53Z</time>
      </trkpt>
      <trkpt lat="42.27155" lon="0.40043">
        <ele>623.05</ele>
        <time>2021-08-02T09:15:57Z</time>
      </trkpt>
      <trkpt lat="42.27143" lon="0.39986">
        <ele>625.52</ele>
        <time>2021-08-02T09:16:01Z</time>
      </trkpt>
    </trkseg>
  </trk>
</gpx>